Time;durP1;ratioP1;P1;durP2;ratioP2;P2;SDS_P1;SDS_P2;PMS_P1;PMS_P2;Temp;Humidity;BMP_temperature;BMP_pressure;BME280_temperature;BME280_humidity;BME280_pressure;Samples;Min_cycle;Max_cycle;Signal;HPM_P1;HPM_P2
2021/05/02 00:00:49;;;;;;;27.17;12.35;;;9.20;85.90;;;;;;4943974;28;20362;-84
2021/05/02 00:03:18;;;;;;;28.35;14.18;;;9.20;86.40;;;;;;4928005;28;20363;-87
2021/05/02 00:05:45;;;;;;;25.20;13.77;;;9.20;87.10;;;;;;4953031;28;20047;-85
2021/05/02 00:08:12;;;;;;;25.65;13.23;;;9.20;87.20;;;;;;4938519;28;20204;-86
2021/05/02 00:10:39;;;;;;;23.52;13.05;;;9.30;86.50;;;;;;4941943;28;20039;-84
2021/05/02 00:13:06;;;;;;;23.55;13.57;;;9.30;85.80;;;;;;4932479;28;20055;-84
2021/05/02 00:15:33;;;;;;;24.13;12.75;;;9.20;85.00;;;;;;4928950;29;20055;-82
2021/05/02 00:18:02;;;;;;;27.05;13.57;;;9.10;85.50;;;;;;4938526;28;20054;-83
2021/05/02 00:20:30;;;;;;;25.30;12.63;;;9.10;84.60;;;;;;4936059;29;20051;-83
2021/05/02 00:23:06;;;;;;;23.45;11.95;;;9.00;85.20;;;;;;4945684;28;20069;-85
2021/05/02 00:25:35;;;;;;;24.60;11.32;;;9.20;85.20;;;;;;4947311;28;20043;-86
2021/05/02 00:28:07;;;;;;;25.95;12.63;;;9.20;84.40;;;;;;4949801;28;20055;-86
2021/05/02 00:30:34;;;;;;;22.40;12.30;;;9.20;84.60;;;;;;4940212;29;20121;-86
2021/05/02 00:33:06;;;;;;;21.50;11.75;;;9.20;87.20;;;;;;4953341;28;20098;-80
2021/05/02 00:35:35;;;;;;;20.17;11.18;;;9.40;84.30;;;;;;4952295;28;20035;-86
2021/05/02 00:38:07;;;;;;;20.08;10.13;;;9.30;83.20;;;;;;4934328;28;20056;-85
2021/05/02 00:40:37;;;;;;;17.63;9.00;;;9.20;82.70;;;;;;4948268;28;20060;-86
2021/05/02 00:43:09;;;;;;;15.82;7.97;;;9.20;81.30;;;;;;4939645;28;20051;-83
2021/05/02 00:45:41;;;;;;;14.90;8.43;;;9.30;80.90;;;;;;4927703;29;20067;-85
2021/05/02 00:48:16;;;;;;;15.43;9.00;;;9.40;79.30;;;;;;4941564;28;20051;-86
2021/05/02 00:50:56;;;;;;;16.25;8.90;;;9.30;80.40;;;;;;4942812;29;20369;-87
2021/05/02 00:53:45;;;;;;;17.38;8.32;;;9.20;79.90;;;;;;4947932;28;20043;-83
2021/05/02 00:56:24;;;;;;;15.77;9.20;;;9.20;81.40;;;;;;4945663;28;20114;-85
2021/05/02 00:59:00;;;;;;;15.63;8.77;;;9.10;82.00;;;;;;4943552;29;20088;-86
2021/05/02 01:01:31;;;;;;;14.63;8.15;;;9.10;81.90;;;;;;4941060;28;20545;-85
2021/05/02 01:03:59;;;;;;;;;;;9.10;80.60;;;;;;4939295;29;20055;-86
2021/05/02 01:06:32;;;;;;;15.13;8.30;;;9.10;80.70;;;;;;4942185;29;20001;-84
2021/05/02 01:09:04;;;;;;;16.30;8.63;;;9.00;80.80;;;;;;4929663;28;20055;-87
2021/05/02 01:11:36;;;;;;;16.38;8.68;;;9.00;80.40;;;;;;4943623;28;20600;-86
2021/05/02 01:14:05;;;;;;;15.05;8.20;;;8.90;81.20;;;;;;4937596;28;20051;-84
2021/05/02 01:16:35;;;;;;;18.80;9.48;;;8.90;81.80;;;;;;4938767;29;20166;-86
2021/05/02 01:19:08;;;;;;;16.52;9.10;;;8.80;81.90;;;;;;4949768;28;20067;-86
2021/05/02 01:21:38;;;;;;;14.73;7.85;;;8.80;82.70;;;;;;4957954;28;20123;-86
2021/05/02 01:24:09;;;;;;;18.25;10.32;;;8.90;83.00;;;;;;4940515;28;20047;-84
2021/05/02 01:26:39;;;;;;;16.85;9.45;;;8.90;82.40;;;;;;4946213;28;20056;-86
2021/05/02 01:29:06;;;;;;;14.88;8.32;;;8.80;82.40;;;;;;4951387;28;20059;-87
2021/05/02 01:31:34;;;;;;;14.75;7.95;;;8.90;83.20;;;;;;4953061;28;20054;-84
2021/05/02 01:34:06;;;;;;;15.70;7.05;;;8.90;82.00;;;;;;4949422;28;20231;-86
2021/05/02 01:36:34;;;;;;;14.27;8.15;;;8.80;80.80;;;;;;4965796;28;20066;-87
2021/05/02 01:39:05;;;;;;;14.07;8.10;;;8.70;81.30;;;;;;4955966;28;20071;-84
2021/05/02 01:41:33;;;;;;;15.07;8.13;;;8.70;81.00;;;;;;4952169;28;20058;-84
2021/05/02 01:44:03;;;;;;;12.93;7.95;;;8.60;81.80;;;;;;4946024;28;20126;-86
2021/05/02 01:46:33;;;;;;;13.82;8.15;;;8.60;82.00;;;;;;4949821;28;20043;-85
2021/05/02 01:49:07;;;;;;;13.52;8.77;;;8.60;83.30;;;;;;4952724;28;20118;-84
2021/05/02 01:51:39;;;;;;;15.40;7.60;;;8.60;82.70;;;;;;4951309;29;20043;-85
2021/05/02 01:54:07;;;;;;;12.65;6.68;;;8.60;82.00;;;;;;4936459;28;20055;-86
2021/05/02 01:56:35;;;;;;;14.65;8.40;;;8.40;82.00;;;;;;4952661;28;20058;-87
2021/05/02 01:59:11;;;;;;;11.98;6.93;;;8.30;82.60;;;;;;4948709;29;20430;-85
2021/05/02 02:01:40;;;;;;;12.98;7.63;;;8.40;83.00;;;;;;4940910;28;20070;-86
2021/05/02 02:04:08;;;;;;;13.25;7.90;;;8.40;83.90;;;;;;4935621;28;20046;-86
2021/05/02 02:06:36;;;;;;;11.13;6.18;;;8.40;84.40;;;;;;4950917;28;20058;-86
2021/05/02 02:09:05;;;;;;;13.32;6.90;;;8.30;83.50;;;;;;4949070;28;20457;-84
2021/05/02 02:11:34;;;;;;;14.27;7.70;;;8.20;83.50;;;;;;4948425;29;20043;-86
2021/05/02 02:14:15;;;;;;;14.10;7.65;;;8.20;84.00;;;;;;4940493;28;20074;-85
2021/05/02 02:16:44;;;;;;;12.88;7.60;;;8.20;84.80;;;;;;4950598;28;20051;-85
2021/05/02 02:19:11;;;;;;;15.95;7.88;;;8.20;85.80;;;;;;4946624;28;20074;-87
2021/05/02 02:21:39;;;;;;;13.25;7.50;;;8.20;86.00;;;;;;4944098;28;20055;-84
2021/05/02 02:24:07;;;;;;;14.68;6.65;;;8.20;86.10;;;;;;4955965;28;20055;-86
2021/05/02 02:26:49;;;;;;;15.10;8.57;;;8.20;85.30;;;;;;4949806;28;20230;-84
2021/05/02 02:29:16;;;;;;;12.35;7.00;;;8.20;85.10;;;;;;4944498;28;20050;-85
2021/05/02 02:31:46;;;;;;;12.88;7.57;;;8.20;85.90;;;;;;4947203;28;20055;-86
2021/05/02 02:34:15;;;;;;;12.83;7.00;;;8.10;86.20;;;;;;4939985;28;20090;-83
2021/05/02 02:36:43;;;;;;;10.15;5.85;;;8.10;86.20;;;;;;4931365;29;20075;-87
2021/05/02 02:39:10;;;;;;;14.20;7.25;;;8.10;86.30;;;;;;4948979;28;20074;-87
2021/05/02 02:41:39;;;;;;;12.15;6.88;;;8.00;86.60;;;;;;4950814;28;20056;-87
2021/05/02 02:44:09;;;;;;;12.23;7.20;;;8.10;86.90;;;;;;4946336;28;20055;-87
2021/05/02 02:46:42;;;;;;;10.23;5.93;;;8.10;87.20;;;;;;4952890;28;20101;-86
2021/05/02 02:49:14;;;;;;;14.02;7.40;;;8.00;87.70;;;;;;4959964;28;20182;-86
2021/05/02 02:51:42;;;;;;;12.77;7.13;;;8.00;87.60;;;;;;4948497;28;20175;-84
2021/05/02 02:54:11;;;;;;;11.70;7.35;;;8.00;88.00;;;;;;4960787;28;21969;-86
2021/05/02 02:56:45;;;;;;;14.53;7.33;;;7.90;87.50;;;;;;4949120;28;20059;-86
2021/05/02 02:59:20;;;;;;;15.75;7.72;;;7.90;87.50;;;;;;4940892;28;20064;-87
2021/05/02 03:01:48;;;;;;;13.95;7.22;;;7.90;88.20;;;;;;4945356;28;20055;-86
2021/05/02 03:04:17;;;;;;;14.52;7.93;;;7.90;88.20;;;;;;4963919;28;20062;-85
2021/05/02 03:06:54;;;;;;;12.70;7.22;;;7.90;88.20;;;;;;4943318;29;20071;-84
2021/05/02 03:09:58;;;;;;;12.07;6.68;;;7.90;87.90;;;;;;4925526;28;20056;-85
2021/05/02 03:12:36;;;;;;;12.77;7.95;;;7.80;87.60;;;;;;4936902;29;20086;-85
2021/05/02 03:15:06;;;;;;;17.30;8.25;;;7.80;87.70;;;;;;4937055;28;20051;-87
2021/05/02 03:17:33;;;;;;;11.77;7.28;;;7.90;88.00;;;;;;4944104;28;20112;-87
2021/05/02 03:20:06;;;;;;;10.68;6.53;;;7.90;88.00;;;;;;4955323;28;20055;-83
2021/05/02 03:22:41;;;;;;;12.82;7.50;;;7.90;88.30;;;;;;4947761;28;20059;-86
2021/05/02 03:25:11;;;;;;;15.13;6.80;;;7.90;87.80;;;;;;4951609;28;20052;-86
2021/05/02 03:27:46;;;;;;;12.63;6.85;;;7.90;86.80;;;;;;4948214;28;20075;-85
2021/05/02 03:30:14;;;;;;;19.42;8.00;;;7.80;87.10;;;;;;4944063;28;20047;-87
2021/05/02 03:32:48;;;;;;;19.73;8.13;;;7.80;87.90;;;;;;4935673;29;20070;-85
2021/05/02 03:35:17;;;;;;;11.10;7.10;;;7.80;88.30;;;;;;4959401;28;20051;-86
2021/05/02 03:37:49;;;;;;;11.68;7.93;;;7.80;88.50;;;;;;4938223;29;20130;-86
2021/05/02 03:40:18;;;;;;;11.48;7.25;;;7.80;88.50;;;;;;4944155;28;20055;-85
2021/05/02 03:42:46;;;;;;;13.63;7.07;;;7.80;89.10;;;;;;4964085;28;20047;-86
2021/05/02 03:45:13;;;;;;;11.98;6.95;;;7.80;88.80;;;;;;4945634;28;20062;-85
2021/05/02 03:47:40;;;;;;;11.35;6.63;;;7.80;88.70;;;;;;4948387;28;20110;-85
2021/05/02 03:50:08;;;;;;;13.02;6.82;;;7.80;88.70;;;;;;4949929;28;20048;-85
2021/05/02 03:52:35;;;;;;;12.93;7.65;;;7.80;88.60;;;;;;4927732;29;20349;-86
2021/05/02 03:55:07;;;;;;;14.23;7.05;;;7.80;88.70;;;;;;4945247;28;20051;-86
2021/05/02 03:57:34;;;;;;;10.55;6.55;;;7.80;88.20;;;;;;4952754;28;20119;-86
2021/05/02 04:00:05;;;;;;;12.15;6.50;;;7.80;88.20;;;;;;4936500;28;20239;-85
2021/05/02 04:02:45;;;;;;;11.07;6.80;;;7.80;88.20;;;;;;4948069;28;20094;-85
2021/05/02 04:05:12;;;;;;;13.43;6.72;;;7.80;88.30;;;;;;4949858;28;20055;-85
2021/05/02 04:07:40;;;;;;;15.07;7.25;;;7.80;88.50;;;;;;4947948;28;20086;-85
2021/05/02 04:10:08;;;;;;;12.52;6.80;;;7.80;88.50;;;;;;4951608;28;20062;-86
2021/05/02 04:12:35;;;;;;;10.75;7.25;;;7.80;88.50;;;;;;4952039;28;20123;-85
2021/05/02 04:15:11;;;;;;;12.93;7.05;;;7.70;88.60;;;;;;4954941;28;20067;-85
2021/05/02 04:17:42;;;;;;;11.27;6.30;;;7.80;88.70;;;;;;4953065;28;20047;-86
2021/05/02 04:20:11;;;;;;;11.85;6.60;;;7.70;88.60;;;;;;4953435;28;20051;-86
2021/05/02 04:22:38;;;;;;;10.23;6.03;;;7.70;88.80;;;;;;4940343;29;20043;-85
2021/05/02 04:25:06;;;;;;;15.30;7.10;;;7.70;88.30;;;;;;4925945;28;20066;-85
2021/05/02 04:27:33;;;;;;;10.32;5.78;;;7.70;88.00;;;;;;4952736;28;20066;-86
2021/05/02 04:30:01;;;;;;;13.80;6.82;;;7.70;87.90;;;;;;4937323;28;20054;-85
2021/05/02 04:32:29;;;;;;;10.85;6.75;;;7.70;88.50;;;;;;4946725;29;20283;-87
2021/05/02 04:34:56;;;;;;;10.65;6.30;;;7.70;88.70;;;;;;4968623;28;20118;-87
2021/05/02 04:37:23;;;;;;;14.80;7.28;;;7.70;88.70;;;;;;4957034;28;20338;-85
2021/05/02 04:39:55;;;;;;;13.63;6.55;;;7.80;88.60;;;;;;4949353;28;20071;-86
2021/05/02 04:42:22;;;;;;;13.10;6.57;;;7.80;88.20;;;;;;4949767;28;20056;-85
2021/05/02 04:44:49;;;;;;;13.07;6.72;;;7.80;87.80;;;;;;4939492;29;20046;-86
2021/05/02 04:47:19;;;;;;;11.65;6.78;;;7.90;87.60;;;;;;4948120;28;20051;-85
2021/05/02 04:49:48;;;;;;;10.88;5.18;;;7.90;87.70;;;;;;4951241;28;20047;-85
2021/05/02 04:52:15;;;;;;;10.73;5.85;;;7.80;87.10;;;;;;4951993;28;20070;-87
2021/05/02 04:54:42;;;;;;;12.75;6.57;;;7.90;87.30;;;;;;4947750;28;20100;-87
2021/05/02 04:57:09;;;;;;;10.57;6.75;;;7.90;87.00;;;;;;4954536;28;20040;-87
2021/05/02 04:59:36;;;;;;;10.57;6.57;;;7.90;87.30;;;;;;4950031;28;20241;-87
2021/05/02 05:02:05;;;;;;;11.00;6.03;;;7.90;87.30;;;;;;4943638;28;20368;-87
2021/05/02 05:04:32;;;;;;;11.43;6.10;;;8.00;87.10;;;;;;4952521;28;20066;-86
2021/05/02 05:07:01;;;;;;;10.30;5.75;;;8.10;86.60;;;;;;4963580;28;20080;-86
2021/05/02 05:09:33;;;;;;;10.85;6.50;;;8.20;85.70;;;;;;4948695;28;24933;-87
2021/05/02 05:12:02;;;;;;;11.55;5.70;;;8.20;85.00;;;;;;4945235;28;20063;-85
2021/05/02 05:14:29;;;;;;;9.93;5.75;;;8.20;84.40;;;;;;4932340;29;20036;-87
2021/05/02 05:16:56;;;;;;;9.65;4.70;;;8.40;83.50;;;;;;4946537;28;20118;-86
2021/05/02 05:19:24;;;;;;;7.20;4.35;;;8.50;73.30;;;;;;4939685;29;20055;-86
2021/05/02 05:21:54;;;;;;;7.32;4.35;;;8.70;75.70;;;;;;4938093;28;20054;-87
2021/05/02 05:24:25;;;;;;;9.30;4.38;;;8.90;71.20;;;;;;4934019;28;20066;-85
2021/05/02 05:26:54;;;;;;;7.15;4.10;;;9.00;70.00;;;;;;4945017;29;20047;-83
2021/05/02 05:29:24;;;;;;;7.50;4.10;;;9.00;69.20;;;;;;4942219;28;20062;-84
2021/05/02 05:31:52;;;;;;;7.10;3.40;;;9.00;67.20;;;;;;4959970;28;20570;-86
2021/05/02 05:34:22;;;;;;;10.18;4.13;;;9.10;68.80;;;;;;4922131;28;20115;-86
2021/05/02 05:36:49;;;;;;;6.97;3.90;;;9.20;66.80;;;;;;4941311;29;20051;-84
2021/05/02 05:39:16;;;;;;;9.77;4.30;;;9.20;67.20;;;;;;4957651;28;20047;-84
2021/05/02 05:41:44;;;;;;;12.25;4.28;;;9.30;66.60;;;;;;4948009;28;20047;-86
2021/05/02 05:44:14;;;;;;;8.65;4.68;;;9.40;66.80;;;;;;4940149;28;20374;-86
2021/05/02 05:46:44;;;;;;;6.90;3.60;;;9.50;67.10;;;;;;4933113;29;20055;-86
2021/05/02 05:49:15;;;;;;;10.48;3.63;;;9.60;66.10;;;;;;4952411;28;20075;-87
2021/05/02 05:51:46;;;;;;;9.07;3.83;;;9.70;67.30;;;;;;4933948;29;20063;-85
2021/05/02 05:54:14;;;;;;;9.13;4.32;;;9.70;66.10;;;;;;4959232;28;20191;-87
2021/05/02 05:56:45;;;;;;;10.60;3.97;;;9.90;66.40;;;;;;4945915;28;20058;-86
2021/05/02 05:59:13;;;;;;;7.88;3.88;;;9.90;63.90;;;;;;4938738;28;20235;-87
2021/05/02 06:01:43;;;;;;;7.55;3.83;;;9.90;63.70;;;;;;4941453;29;20235;-86
2021/05/02 06:04:10;;;;;;;8.40;4.03;;;9.70;65.00;;;;;;4924714;28;20048;-86
2021/05/02 06:06:38;;;;;;;9.10;4.80;;;9.90;65.60;;;;;;4944145;28;20080;-86
2021/05/02 06:09:07;;;;;;;6.65;3.78;;;10.00;64.30;;;;;;4940919;28;20118;-86
2021/05/02 06:11:35;;;;;;;7.40;3.67;;;10.00;63.90;;;;;;4945118;28;20066;-87
2021/05/02 06:14:14;;;;;;;7.45;4.07;;;10.10;63.40;;;;;;4940217;28;20059;-85
2021/05/02 06:16:42;;;;;;;10.38;4.22;;;10.10;63.70;;;;;;4946432;28;20354;-85
2021/05/02 06:19:09;;;;;;;7.25;3.78;;;10.10;63.40;;;;;;4949014;28;20048;-87
2021/05/02 06:21:40;;;;;;;12.00;4.10;;;10.10;63.70;;;;;;4949400;28;20119;-85
2021/05/02 06:24:09;;;;;;;8.77;4.57;;;10.20;63.40;;;;;;4948624;28;20107;-84
2021/05/02 06:26:36;;;;;;;12.02;4.63;;;10.30;63.40;;;;;;4937212;29;20402;-84
2021/05/02 06:29:05;;;;;;;7.18;3.88;;;10.40;63.50;;;;;;4959902;28;20071;-85
2021/05/02 06:31:32;;;;;;;8.63;3.80;;;10.60;61.60;;;;;;4955479;28;20223;-87
2021/05/02 06:33:59;;;;;;;7.93;4.65;;;10.50;61.90;;;;;;4947729;28;20050;-84
2021/05/02 06:36:26;;;;;;;9.45;4.82;;;10.60;61.50;;;;;;4928149;29;20043;-87
2021/05/02 06:38:53;;;;;;;9.75;4.78;;;10.50;61.80;;;;;;4948024;28;20071;-84
2021/05/02 06:41:20;;;;;;;8.02;4.72;;;10.60;61.40;;;;;;4953569;28;20327;-86
2021/05/02 06:43:47;;;;;;;8.10;4.60;;;10.50;61.10;;;;;;4946285;28;20047;-87
2021/05/02 06:46:27;;;;;;;9.50;5.07;;;10.70;61.10;;;;;;4941454;28;20052;-86
2021/05/02 06:48:56;;;;;;;7.38;4.28;;;10.60;60.70;;;;;;4940489;29;20063;-86
2021/05/02 06:51:23;;;;;;;8.88;4.72;;;10.70;60.40;;;;;;4943192;28;20228;-85
2021/05/02 06:53:53;;;;;;;9.50;5.00;;;10.70;60.50;;;;;;4942933;28;20057;-85
2021/05/02 06:56:20;;;;;;;10.82;5.03;;;10.80;60.40;;;;;;4935190;28;20074;-87
2021/05/02 06:58:47;;;;;;;12.50;4.82;;;10.80;60.70;;;;;;4945892;29;20082;-85
2021/05/02 07:01:16;;;;;;;10.50;4.80;;;10.80;60.10;;;;;;4952626;28;20099;-87
2021/05/02 07:03:44;;;;;;;8.20;4.70;;;10.90;60.70;;;;;;4943540;28;20275;-85
2021/05/02 07:06:11;;;;;;;11.35;4.85;;;10.90;60.30;;;;;;4945880;28;20062;-84
2021/05/02 07:08:38;;;;;;;9.10;4.88;;;10.80;60.60;;;;;;4944383;28;20071;-86
2021/05/02 07:11:06;;;;;;;12.77;5.53;;;10.90;60.20;;;;;;4944330;28;20055;-85
2021/05/02 07:13:33;;;;;;;8.88;5.20;;;10.80;58.80;;;;;;4951273;28;20099;-86
2021/05/02 07:16:00;;;;;;;8.25;4.80;;;10.90;60.20;;;;;;4945838;28;20047;-85
2021/05/02 07:18:33;;;;;;;9.05;5.47;;;10.80;59.50;;;;;;4936207;29;20377;-86
2021/05/02 07:21:00;;;;;;;8.82;5.32;;;10.70;59.70;;;;;;4943294;28;20114;-85
2021/05/02 07:23:28;;;;;;;10.93;5.43;;;10.80;60.00;;;;;;4928128;29;20052;-85
2021/05/02 07:25:56;;;;;;;11.88;5.10;;;10.90;59.00;;;;;;4944485;28;20047;-86
2021/05/02 07:28:23;;;;;;;14.05;6.05;;;11.00;58.30;;;;;;4938629;28;20074;-87
2021/05/02 07:30:51;;;;;;;9.65;5.30;;;11.00;56.80;;;;;;4936128;29;20044;-85
2021/05/02 07:33:18;;;;;;;10.48;5.25;;;10.90;57.40;;;;;;4946411;28;20055;-87
2021/05/02 07:35:49;;;;;;;8.57;5.00;;;11.10;57.50;;;;;;4947876;28;20050;-85
2021/05/02 07:38:17;;;;;;;10.43;5.70;;;11.10;57.60;;;;;;4938920;28;20083;-86
2021/05/02 07:40:44;;;;;;;8.27;5.35;;;10.90;57.60;;;;;;4944109;29;20055;-85
2021/05/02 07:43:11;;;;;;;9.85;5.53;;;11.00;59.10;;;;;;4958215;28;20057;-84
2021/05/02 07:45:38;;;;;;;12.70;5.80;;;10.90;57.70;;;;;;4943878;28;20102;-86
2021/05/02 07:48:06;;;;;;;11.32;6.00;;;10.60;57.00;;;;;;4945569;28;20074;-84
2021/05/02 07:50:33;;;;;;;9.10;4.88;;;10.90;57.20;;;;;;4936233;29;20043;-83
2021/05/02 07:53:01;;;;;;;10.55;5.57;;;11.00;54.80;;;;;;4944157;28;20047;-85
2021/05/02 07:55:28;;;;;;;12.23;5.13;;;11.10;52.60;;;;;;4931619;29;20056;-86
2021/05/02 07:57:55;;;;;;;9.98;4.80;;;10.90;54.30;;;;;;4947268;28;20043;-86
2021/05/02 08:00:23;;;;;;;10.15;5.80;;;11.00;54.50;;;;;;4960988;28;20055;-84
2021/05/02 08:02:50;;;;;;;11.02;5.32;;;11.10;53.60;;;;;;4954702;28;20158;-84
2021/05/02 08:05:19;;;;;;;10.35;5.32;;;11.10;52.90;;;;;;4942528;28;20154;-84
2021/05/02 08:07:46;;;;;;;9.13;4.03;;;11.10;53.30;;;;;;4934254;29;20050;-85
2021/05/02 08:10:14;;;;;;;8.93;3.92;;;11.10;52.60;;;;;;4939608;28;20043;-87
2021/05/02 08:12:41;;;;;;;7.95;4.13;;;11.00;53.10;;;;;;4939098;28;20358;-83
2021/05/02 08:15:09;;;;;;;7.72;3.88;;;10.50;51.40;;;;;;4942567;28;20043;-86
2021/05/02 08:17:37;;;;;;;6.30;3.70;;;10.40;53.80;;;;;;4963215;28;20069;-86
2021/05/02 08:20:06;;;;;;;11.70;4.35;;;10.60;53.50;;;;;;4942504;28;20132;-86
2021/05/02 08:22:34;;;;;;;7.30;3.53;;;10.70;53.70;;;;;;4944696;28;20074;-88
2021/05/02 08:25:05;;;;;;;8.23;3.78;;;10.90;53.00;;;;;;4946724;28;20056;-85
2021/05/02 08:27:32;;;;;;;;;;;11.10;51.90;;;;;;4946510;28;20319;-85
2021/05/02 08:30:02;;;;;;;7.28;2.92;;;11.30;51.50;;;;;;4948411;28;20095;-85
2021/05/02 08:32:35;;;;;;;6.80;3.33;;;11.40;49.40;;;;;;4950970;28;20219;-85
2021/05/02 08:35:03;;;;;;;8.25;3.40;;;11.60;48.70;;;;;;4947346;28;20127;-85
2021/05/02 08:37:30;;;;;;;6.60;3.13;;;11.50;47.40;;;;;;4954037;28;20403;-85
2021/05/02 08:39:57;;;;;;;6.18;2.97;;;11.40;48.10;;;;;;4934886;29;20058;-85
2021/05/02 08:42:25;;;;;;;6.05;3.33;;;11.30;49.00;;;;;;4944842;28;20058;-85
2021/05/02 08:44:53;;;;;;;4.22;2.13;;;11.30;47.50;;;;;;4950339;28;20373;-86
2021/05/02 08:47:20;;;;;;;5.93;2.70;;;11.30;47.40;;;;;;4937938;28;20070;-87
2021/05/02 08:49:47;;;;;;;4.75;2.42;;;11.70;46.60;;;;;;4939353;29;20046;-84
2021/05/02 08:52:14;;;;;;;6.97;3.03;;;12.00;44.90;;;;;;4945027;28;20051;-85
2021/05/02 08:54:42;;;;;;;6.47;3.33;;;12.10;45.70;;;;;;4928303;29;20047;-86
2021/05/02 08:57:11;;;;;;;6.32;2.90;;;12.30;46.20;;;;;;4943848;28;20043;-88
2021/05/02 08:59:38;;;;;;;5.47;2.42;;;12.30;45.90;;;;;;4947651;28;20066;-85
2021/05/02 09:02:05;;;;;;;5.65;2.65;;;12.20;45.10;;;;;;4957561;28;20059;-87
2021/05/02 09:04:35;;;;;;;6.55;2.63;;;12.10;45.60;;;;;;4929935;29;20460;-88
2021/05/02 09:07:14;;;;;;;5.18;2.55;;;12.20;48.00;;;;;;4945869;28;20067;-87
2021/05/02 09:09:44;;;;;;;7.22;3.05;;;12.80;45.00;;;;;;4960914;28;20103;-84
2021/05/02 09:12:22;;;;;;;6.40;3.13;;;13.30;44.10;;;;;;4952339;28;20075;-87
2021/05/02 09:14:50;;;;;;;5.20;2.20;;;13.30;44.10;;;;;;4935972;29;20110;-85
2021/05/02 09:17:26;;;;;;;5.78;2.47;;;13.00;44.50;;;;;;4939637;28;20064;-87
2021/05/02 09:19:53;;;;;;;5.95;2.17;;;12.70;43.40;;;;;;4950725;28;20071;-83
2021/05/02 09:22:21;;;;;;;5.60;2.30;;;12.70;43.50;;;;;;4943409;28;20055;-88
2021/05/02 09:25:03;;;;;;;6.40;3.05;;;12.70;43.30;;;;;;4947882;28;20122;-85
2021/05/02 09:27:31;;;;;;;5.60;2.33;;;12.90;43.40;;;;;;4931735;29;20051;-86
2021/05/02 09:30:13;;;;;;;5.30;2.80;;;12.60;43.40;;;;;;4950881;28;20065;-84
2021/05/02 09:32:44;;;;;;;5.03;2.13;;;12.70;44.30;;;;;;4956478;28;20440;-87
2021/05/02 09:35:24;;;;;;;6.30;2.42;;;12.50;44.50;;;;;;4951667;28;20051;-85
2021/05/02 09:38:06;;;;;;;5.13;2.00;;;12.60;43.70;;;;;;4934109;29;20048;-86
2021/05/02 09:40:45;;;;;;;4.45;2.05;;;13.10;43.60;;;;;;4943063;29;20094;-86
2021/05/02 09:43:29;;;;;;;6.80;2.58;;;13.60;42.00;;;;;;4940413;28;20060;-85
2021/05/02 09:46:23;;;;;;;4.63;2.20;;;14.00;42.20;;;;;;4947964;29;20082;-85
2021/05/02 09:49:00;;;;;;;4.43;1.77;;;13.90;42.00;;;;;;4950571;28;20508;-88
2021/05/02 09:51:32;;;;;;;3.70;1.80;;;13.90;42.30;;;;;;4952019;28;20408;-87
2021/05/02 09:54:07;;;;;;;4.95;2.30;;;13.60;40.90;;;;;;4954725;28;20062;-84
2021/05/02 09:56:37;;;;;;;4.55;2.03;;;13.80;40.00;;;;;;4950815;28;20352;-83
2021/05/02 09:59:23;;;;;;;5.15;2.38;;;14.20;41.70;;;;;;4938864;28;20059;-86
2021/05/02 10:02:26;;;;;;;4.25;2.10;;;14.00;42.40;;;;;;4968892;28;20069;-86
2021/05/02 10:04:57;;;;;;;4.68;2.05;;;14.20;41.20;;;;;;4948642;29;20449;-85
2021/05/02 10:07:24;;;;;;;;;;;14.10;41.90;;;;;;4956892;28;20047;-85
2021/05/02 10:09:52;;;;;;;6.68;2.72;;;13.90;42.10;;;;;;4929096;29;19919;-85
2021/05/02 10:12:20;;;;;;;7.38;3.00;;;13.90;41.70;;;;;;4957745;28;20178;-86
2021/05/02 10:14:50;;;;;;;6.45;3.13;;;14.20;41.80;;;;;;4957606;28;20070;-87
2021/05/02 10:17:19;;;;;;;8.13;3.23;;;13.90;42.50;;;;;;4950270;28;20121;-86
2021/05/02 10:19:50;;;;;;;6.65;3.08;;;13.70;41.80;;;;;;4952207;28;20047;-86
2021/05/02 10:22:18;;;;;;;6.63;3.00;;;13.50;42.70;;;;;;4954891;28;20107;-87
2021/05/02 10:24:47;;;;;;;7.65;3.88;;;13.80;42.40;;;;;;4970280;28;20130;-85
2021/05/02 10:27:14;;;;;;;8.15;3.55;;;14.50;40.90;;;;;;4931392;28;20122;-85
2021/05/02 10:29:42;;;;;;;5.20;2.97;;;14.30;40.70;;;;;;4949900;29;20058;-84
2021/05/02 10:32:15;;;;;;;18.40;8.88;;;14.40;39.30;;;;;;4947991;28;20055;-87
2021/05/02 10:34:43;;;;;;;7.63;3.45;;;14.20;40.90;;;;;;4954698;28;20075;-85
2021/05/02 10:37:41;;;;;;;6.25;2.58;;;16.90;36.90;;;;;;4924659;28;20058;-86
2021/05/02 10:40:15;;;;;;;6.88;2.53;;;19.40;32.50;;;;;;4966750;28;20047;-87
2021/05/02 10:42:46;;;;;;;6.72;2.80;;;17.30;35.00;;;;;;4942368;29;20043;-88
2021/05/02 10:45:37;;;;;;;6.07;2.95;;;16.00;37.30;;;;;;4929490;28;20036;-82
2021/05/02 10:48:06;;;;;;;5.90;2.58;;;14.90;38.50;;;;;;4930524;28;20058;-84
2021/05/02 10:50:35;;;;;;;6.80;3.20;;;14.20;39.80;;;;;;4957008;28;20060;-86
2021/05/02 10:53:05;;;;;;;5.53;2.70;;;14.50;40.10;;;;;;4945969;28;20054;-88
2021/05/02 10:55:58;;;;;;;8.23;2.83;;;14.90;37.80;;;;;;4940004;29;20043;-86
2021/05/02 10:58:27;;;;;;;6.95;2.63;;;15.10;37.30;;;;;;4940775;28;20402;-87
2021/05/02 11:00:56;;;;;;;4.75;2.38;;;16.00;35.60;;;;;;4937683;29;20055;-85
2021/05/02 11:03:52;;;;;;;6.75;3.17;;;18.20;34.50;;;;;;4945439;28;20047;-84
2021/05/02 11:06:52;;;;;;;8.38;3.00;;;17.60;34.30;;;;;;4955156;28;20071;-84
2021/05/02 11:09:22;;;;;;;4.50;2.58;;;16.60;35.40;;;;;;4950536;28;20047;-86
2021/05/02 11:11:53;;;;;;;8.07;3.20;;;17.40;34.10;;;;;;4950202;29;20043;-84
2021/05/02 11:14:36;;;;;;;4.70;2.33;;;16.10;36.00;;;;;;4941266;28;20052;-87
2021/05/02 11:17:21;;;;;;;7.13;3.00;;;15.20;38.40;;;;;;4938194;28;20055;-85
2021/05/02 11:19:49;;;;;;;6.50;3.08;;;15.90;37.30;;;;;;4944178;28;20053;-84
2021/05/02 11:22:17;;;;;;;4.90;2.80;;;17.00;35.10;;;;;;4948292;28;20061;-86
2021/05/02 11:25:15;;;;;;;9.23;2.83;;;17.30;35.10;;;;;;4950117;28;20047;-87
2021/05/02 11:30:27;;;;;;;5.03;2.63;;;16.70;34.60;;;;;;4947782;28;21172;-85
2021/05/02 11:32:56;;;;;;;7.90;2.78;;;16.70;35.00;;;;;;4948025;29;20294;-88
2021/05/02 11:35:53;;;;;;;7.57;3.60;;;20.10;31.10;;;;;;4947233;29;20099;-84
2021/05/02 11:38:40;;;;;;;6.55;3.10;;;17.90;32.50;;;;;;4955454;28;20065;-85
2021/05/02 11:41:15;;;;;;;5.22;2.40;;;16.70;34.90;;;;;;4948293;28;20123;-85
2021/05/02 11:43:44;;;;;;;8.52;2.97;;;16.10;35.70;;;;;;4946281;28;20294;-85
2021/05/02 11:46:19;;;;;;;5.97;2.80;;;16.00;36.50;;;;;;4949273;28;20055;-87
2021/05/02 11:48:49;;;;;;;9.60;4.40;;;16.00;36.40;;;;;;4947752;29;20146;-88
2021/05/02 11:51:24;;;;;;;11.55;4.32;;;17.20;34.60;;;;;;4926430;28;20048;-86
2021/05/02 11:53:54;;;;;;;7.97;3.45;;;16.40;36.30;;;;;;4952635;28;20273;-83
2021/05/02 11:56:28;;;;;;;6.15;3.15;;;15.60;36.90;;;;;;4952025;28;20055;-85
2021/05/02 11:58:57;;;;;;;8.32;3.55;;;16.30;36.80;;;;;;4946149;29;20051;-84
2021/05/02 12:01:29;;;;;;;8.95;3.60;;;16.70;36.50;;;;;;4964747;28;20051;-86
2021/05/02 12:04:04;;;;;;;6.28;2.83;;;17.20;35.70;;;;;;4959403;28;20051;-82
2021/05/02 12:06:33;;;;;;;5.30;2.10;;;17.10;35.60;;;;;;4943609;29;20122;-87
2021/05/02 12:09:03;;;;;;;4.82;2.50;;;20.30;32.10;;;;;;4948367;28;20083;-88
2021/05/02 12:11:31;;;;;;;4.95;2.40;;;21.90;27.80;;;;;;4954787;28;20740;-86
2021/05/02 12:13:58;;;;;;;6.25;2.42;;;20.20;28.40;;;;;;4949368;28;20075;-84
2021/05/02 12:16:27;;;;;;;4.72;2.20;;;19.30;29.20;;;;;;4935603;29;20357;-87
2021/05/02 12:18:57;;;;;;;4.53;2.00;;;20.50;28.50;;;;;;4945546;28;21516;-87
2021/05/02 12:21:27;;;;;;;5.53;2.40;;;18.50;29.90;;;;;;4947039;28;20051;-87
2021/05/02 12:24:07;;;;;;;4.20;1.98;;;17.00;31.90;;;;;;4960215;28;20082;-85
2021/05/02 12:26:37;;;;;;;;;;;15.80;35.60;;;;;;4952011;28;21626;-84
2021/05/02 12:29:06;;;;;;;2.83;1.60;;;15.90;35.30;;;;;;4942288;28;20134;-85
2021/05/02 12:31:33;;;;;;;4.75;2.63;;;15.70;36.20;;;;;;4943997;29;20369;-86
2021/05/02 12:34:02;;;;;;;6.65;2.47;;;15.50;37.10;;;;;;4935904;29;20036;-84
2021/05/02 12:36:32;;;;;;;4.68;2.38;;;15.20;37.00;;;;;;4941214;29;20062;-85
2021/05/02 12:39:01;;;;;;;5.40;2.53;;;14.90;37.00;;;;;;4936503;28;20047;-87
2021/05/02 12:41:29;;;;;;;3.78;2.13;;;13.90;38.40;;;;;;4943128;28;20504;-86
2021/05/02 12:44:13;;;;;;;5.72;3.03;;;13.40;39.90;;;;;;4941634;28;20317;-85
2021/05/02 12:46:43;;;;;;;5.68;2.03;;;13.30;41.60;;;;;;4960235;28;20051;-87
2021/05/02 12:49:13;;;;;;;4.35;2.22;;;13.00;42.40;;;;;;4937500;28;20052;-87
2021/05/02 12:51:41;;;;;;;4.07;2.15;;;13.00;43.00;;;;;;4945453;28;20067;-86
2021/05/02 12:54:17;;;;;;;7.45;2.30;;;12.70;42.30;;;;;;4946353;28;20374;-87
2021/05/02 12:56:45;;;;;;;3.85;1.73;;;12.40;42.90;;;;;;4946936;28;20051;-87
2021/05/02 12:59:36;;;;;;;3.80;2.22;;;12.40;43.20;;;;;;4936368;28;20055;-85
2021/05/02 13:02:09;;;;;;;3.30;1.83;;;12.60;42.60;;;;;;4948541;28;20047;-87
2021/05/02 13:04:50;;;;;;;6.20;1.98;;;12.80;42.30;;;;;;4958184;28;20055;-87
2021/05/02 13:07:33;;;;;;;6.43;2.45;;;12.80;42.90;;;;;;4962169;28;20074;-86
2021/05/02 13:10:01;;;;;;;4.70;1.63;;;13.00;41.40;;;;;;4962725;28;20054;-86